sensor_id;sensor_type;location;lat;lon;timestamp;P1;durP1;ratioP1;P2;durP2;ratioP2
24903;SDS011;12960;50.322;11.124;2022-08-20T00:00:33;17.33;;;11.77;;
24903;SDS011;12960;50.322;11.124;2022-08-20T00:01:35;17.40;;;12.43;;
24903;SDS011;12960;50.322;11.124;2022-08-20T00:02:37;15.40;;;13.23;;
24903;SDS011;12960;50.322;11.124;2022-08-20T00:03:42;16.00;;;12.18;;
24903;SDS011;12960;50.322;11.124;2022-08-20T00:04:43;17.60;;;13.38;;
24903;SDS011;12960;50.322;11.124;2022-08-20T00:05:49;16.83;;;12.20;;
24903;SDS011;12960;50.322;11.124;2022-08-20T00:06:55;16.33;;;13.55;;
24903;SDS011;12960;50.322;11.124;2022-08-20T00:07:56;17.02;;;13.25;;
24903;SDS011;12960;50.322;11.124;2022-08-20T00:09:04;16.58;;;13.13;;
24903;SDS011;12960;50.322;11.124;2022-08-20T00:10:06;18.13;;;12.90;;
24903;SDS011;12960;50.322;11.124;2022-08-20T00:11:11;17.15;;;11.90;;
24903;SDS011;12960;50.322;11.124;2022-08-20T00:12:15;17.60;;;13.20;;
24903;SDS011;12960;50.322;11.124;2022-08-20T00:13:27;18.63;;;13.50;;
24903;SDS011;12960;50.322;11.124;2022-08-20T00:14:31;18.55;;;13.23;;
24903;SDS011;12960;50.322;11.124;2022-08-20T00:15:34;17.48;;;12.77;;
24903;SDS011;12960;50.322;11.124;2022-08-20T00:16:39;16.60;;;12.80;;
24903;SDS011;12960;50.322;11.124;2022-08-20T00:17:40;17.08;;;12.98;;
24903;SDS011;12960;50.322;11.124;2022-08-20T00:18:41;16.98;;;12.20;;
24903;SDS011;12960;50.322;11.124;2022-08-20T00:19:43;16.85;;;12.68;;
24903;SDS011;12960;50.322;11.124;2022-08-20T00:20:45;15.63;;;12.63;;
24903;SDS011;12960;50.322;11.124;2022-08-20T00:21:49;17.13;;;12.95;;
24903;SDS011;12960;50.322;11.124;2022-08-20T00:22:50;16.40;;;12.75;;
24903;SDS011;12960;50.322;11.124;2022-08-20T00:23:52;15.43;;;12.65;;
24903;SDS011;12960;50.322;11.124;2022-08-20T00:24:57;13.98;;;12.38;;
24903;SDS011;12960;50.322;11.124;2022-08-20T00:25:58;18.33;;;13.27;;
24903;SDS011;12960;50.322;11.124;2022-08-20T00:26:59;14.90;;;12.57;;
24903;SDS011;12960;50.322;11.124;2022-08-20T00:28:00;15.40;;;12.27;;
24903;SDS011;12960;50.322;11.124;2022-08-20T00:29:06;16.75;;;12.63;;
24903;SDS011;12960;50.322;11.124;2022-08-20T00:30:08;15.50;;;11.38;;
24903;SDS011;12960;50.322;11.124;2022-08-20T00:31:15;13.52;;;10.90;;
24903;SDS011;12960;50.322;11.124;2022-08-20T00:32:21;13.82;;;11.13;;
24903;SDS011;12960;50.322;11.124;2022-08-20T00:33:23;17.40;;;11.55;;
24903;SDS011;12960;50.322;11.124;2022-08-20T00:34:24;13.95;;;10.80;;
24903;SDS011;12960;50.322;11.124;2022-08-20T00:35:26;17.77;;;11.93;;
24903;SDS011;12960;50.322;11.124;2022-08-20T00:36:29;13.45;;;11.38;;
24903;SDS011;12960;50.322;11.124;2022-08-20T00:37:30;15.35;;;11.20;;
24903;SDS011;12960;50.322;11.124;2022-08-20T00:38:32;15.38;;;11.32;;
24903;SDS011;12960;50.322;11.124;2022-08-20T00:39:36;18.40;;;12.02;;
24903;SDS011;12960;50.322;11.124;2022-08-20T00:40:39;15.35;;;11.48;;
24903;SDS011;12960;50.322;11.124;2022-08-20T00:41:49;19.23;;;12.18;;
24903;SDS011;12960;50.322;11.124;2022-08-20T00:42:55;16.40;;;12.25;;
24903;SDS011;12960;50.322;11.124;2022-08-20T00:44:17;19.52;;;13.07;;
24903;SDS011;12960;50.322;11.124;2022-08-20T00:45:26;18.83;;;13.32;;
24903;SDS011;12960;50.322;11.124;2022-08-20T00:46:29;18.58;;;13.18;;
24903;SDS011;12960;50.322;11.124;2022-08-20T00:47:34;16.33;;;11.98;;
24903;SDS011;12960;50.322;11.124;2022-08-20T00:48:39;19.95;;;13.88;;
24903;SDS011;12960;50.322;11.124;2022-08-20T00:49:42;20.13;;;14.57;;
24903;SDS011;12960;50.322;11.124;2022-08-20T00:50:44;17.95;;;14.45;;
24903;SDS011;12960;50.322;11.124;2022-08-20T00:51:47;17.75;;;14.23;;
24903;SDS011;12960;50.322;11.124;2022-08-20T00:53:00;19.17;;;14.05;;
24903;SDS011;12960;50.322;11.124;2022-08-20T00:54:06;21.13;;;14.43;;
24903;SDS011;12960;50.322;11.124;2022-08-20T00:55:29;22.45;;;15.57;;
24903;SDS011;12960;50.322;11.124;2022-08-20T00:56:32;58.80;;;38.05;;
24903;SDS011;12960;50.322;11.124;2022-08-20T00:57:36;162.27;;;107.75;;
24903;SDS011;12960;50.322;11.124;2022-08-20T00:58:40;22.48;;;16.70;;
24903;SDS011;12960;50.322;11.124;2022-08-20T00:59:44;24.05;;;17.55;;
24903;SDS011;12960;50.322;11.124;2022-08-20T01:00:50;23.70;;;18.88;;
24903;SDS011;12960;50.322;11.124;2022-08-20T01:01:52;26.80;;;15.07;;
24903;SDS011;12960;50.322;11.124;2022-08-20T01:02:54;20.20;;;14.95;;
24903;SDS011;12960;50.322;11.124;2022-08-20T01:03:55;19.92;;;15.02;;
24903;SDS011;12960;50.322;11.124;2022-08-20T01:04:57;19.85;;;14.38;;
24903;SDS011;12960;50.322;11.124;2022-08-20T01:05:59;26.83;;;19.65;;
24903;SDS011;12960;50.322;11.124;2022-08-20T01:07:00;122.45;;;79.93;;
24903;SDS011;12960;50.322;11.124;2022-08-20T01:08:04;68.07;;;49.45;;
24903;SDS011;12960;50.322;11.124;2022-08-20T01:09:06;52.15;;;35.70;;
24903;SDS011;12960;50.322;11.124;2022-08-20T01:10:13;33.30;;;23.73;;
24903;SDS011;12960;50.322;11.124;2022-08-20T01:11:17;33.45;;;23.38;;
24903;SDS011;12960;50.322;11.124;2022-08-20T01:12:21;29.05;;;17.50;;
24903;SDS011;12960;50.322;11.124;2022-08-20T01:13:23;22.98;;;16.38;;
24903;SDS011;12960;50.322;11.124;2022-08-20T01:14:31;19.02;;;15.05;;
24903;SDS011;12960;50.322;11.124;2022-08-20T01:15:54;21.70;;;15.13;;
24903;SDS011;12960;50.322;11.124;2022-08-20T01:16:59;18.95;;;14.38;;
24903;SDS011;12960;50.322;11.124;2022-08-20T01:18:09;32.50;;;15.60;;
24903;SDS011;12960;50.322;11.124;2022-08-20T01:19:13;18.27;;;13.90;;
24903;SDS011;12960;50.322;11.124;2022-08-20T01:20:17;22.13;;;13.98;;
24903;SDS011;12960;50.322;11.124;2022-08-20T01:21:22;21.75;;;14.75;;
24903;SDS011;12960;50.322;11.124;2022-08-20T01:22:31;17.58;;;13.32;;
24903;SDS011;12960;50.322;11.124;2022-08-20T01:24:10;18.10;;;13.80;;
24903;SDS011;12960;50.322;11.124;2022-08-20T01:25:25;25.85;;;14.30;;
24903;SDS011;12960;50.322;11.124;2022-08-20T01:26:39;22.27;;;13.18;;
24903;SDS011;12960;50.322;11.124;2022-08-20T01:27:43;17.10;;;13.50;;
24903;SDS011;12960;50.322;11.124;2022-08-20T01:29:05;18.02;;;15.18;;
24903;SDS011;12960;50.322;11.124;2022-08-20T01:30:10;16.83;;;13.27;;
24903;SDS011;12960;50.322;11.124;2022-08-20T01:31:15;18.13;;;14.38;;
24903;SDS011;12960;50.322;11.124;2022-08-20T01:32:17;16.80;;;13.75;;
24903;SDS011;12960;50.322;11.124;2022-08-20T01:33:19;20.20;;;14.55;;
24903;SDS011;12960;50.322;11.124;2022-08-20T01:34:21;19.42;;;14.27;;
24903;SDS011;12960;50.322;11.124;2022-08-20T01:35:23;22.70;;;15.18;;
24903;SDS011;12960;50.322;11.124;2022-08-20T01:36:29;20.00;;;15.90;;
24903;SDS011;12960;50.322;11.124;2022-08-20T01:37:34;22.10;;;14.68;;
24903;SDS011;12960;50.322;11.124;2022-08-20T01:38:35;22.60;;;16.42;;
24903;SDS011;12960;50.322;11.124;2022-08-20T01:39:37;21.25;;;15.68;;
24903;SDS011;12960;50.322;11.124;2022-08-20T01:43:29;19.23;;;13.93;;
24903;SDS011;12960;50.322;11.124;2022-08-20T01:44:31;22.83;;;15.50;;
24903;SDS011;12960;50.322;11.124;2022-08-20T01:45:39;19.77;;;15.45;;
24903;SDS011;12960;50.322;11.124;2022-08-20T01:46:44;21.63;;;14.55;;
24903;SDS011;12960;50.322;11.124;2022-08-20T01:47:46;21.98;;;14.93;;
24903;SDS011;12960;50.322;11.124;2022-08-20T01:48:48;25.67;;;16.05;;
24903;SDS011;12960;50.322;11.124;2022-08-20T01:49:50;22.02;;;15.43;;
24903;SDS011;12960;50.322;11.124;2022-08-20T01:50:59;22.27;;;16.30;;
24903;SDS011;12960;50.322;11.124;2022-08-20T01:52:12;21.45;;;14.75;;
24903;SDS011;12960;50.322;11.124;2022-08-20T01:53:23;21.08;;;15.50;;
24903;SDS011;12960;50.322;11.124;2022-08-20T01:54:28;22.45;;;17.25;;
24903;SDS011;12960;50.322;11.124;2022-08-20T01:55:33;21.95;;;16.27;;
24903;SDS011;12960;50.322;11.124;2022-08-20T01:56:49;21.05;;;15.48;;
24903;SDS011;12960;50.322;11.124;2022-08-20T01:58:00;21.13;;;14.68;;
24903;SDS011;12960;50.322;11.124;2022-08-20T01:59:02;21.63;;;16.25;;
24903;SDS011;12960;50.322;11.124;2022-08-20T02:00:08;21.80;;;15.32;;
24903;SDS011;12960;50.322;11.124;2022-08-20T02:01:21;18.05;;;13.90;;
24903;SDS011;12960;50.322;11.124;2022-08-20T02:02:25;21.63;;;15.98;;
24903;SDS011;12960;50.322;11.124;2022-08-20T02:03:27;19.40;;;15.13;;
24903;SDS011;12960;50.322;11.124;2022-08-20T02:04:32;21.98;;;16.38;;
24903;SDS011;12960;50.322;11.124;2022-08-20T02:05:34;23.38;;;15.75;;
24903;SDS011;12960;50.322;11.124;2022-08-20T02:06:41;23.23;;;15.52;;
24903;SDS011;12960;50.322;11.124;2022-08-20T02:07:49;22.17;;;15.35;;
24903;SDS011;12960;50.322;11.124;2022-08-20T02:08:54;21.15;;;16.63;;
24903;SDS011;12960;50.322;11.124;2022-08-20T02:09:57;22.05;;;16.52;;
24903;SDS011;12960;50.322;11.124;2022-08-20T02:10:58;24.83;;;16.50;;
24903;SDS011;12960;50.322;11.124;2022-08-20T02:11:59;22.50;;;15.98;;
24903;SDS011;12960;50.322;11.124;2022-08-20T02:13:03;22.50;;;16.63;;
24903;SDS011;12960;50.322;11.124;2022-08-20T02:14:05;25.77;;;17.23;;
24903;SDS011;12960;50.322;11.124;2022-08-20T02:15:11;21.92;;;15.95;;
24903;SDS011;12960;50.322;11.124;2022-08-20T02:16:15;23.05;;;16.58;;
24903;SDS011;12960;50.322;11.124;2022-08-20T02:17:16;22.52;;;17.60;;
24903;SDS011;12960;50.322;11.124;2022-08-20T02:18:20;23.60;;;17.15;;
24903;SDS011;12960;50.322;11.124;2022-08-20T02:19:23;24.60;;;16.98;;
24903;SDS011;12960;50.322;11.124;2022-08-20T02:20:42;23.90;;;17.00;;
24903;SDS011;12960;50.322;11.124;2022-08-20T02:21:50;22.23;;;16.70;;
24903;SDS011;12960;50.322;11.124;2022-08-20T02:22:56;23.70;;;17.02;;
24903;SDS011;12960;50.322;11.124;2022-08-20T02:23:58;26.17;;;16.70;;
24903;SDS011;12960;50.322;11.124;2022-08-20T02:24:59;25.58;;;18.38;;
24903;SDS011;12960;50.322;11.124;2022-08-20T02:26:01;23.08;;;17.02;;
24903;SDS011;12960;50.322;11.124;2022-08-20T02:27:02;26.67;;;18.40;;
24903;SDS011;12960;50.322;11.124;2022-08-20T02:28:05;23.08;;;16.38;;
24903;SDS011;12960;50.322;11.124;2022-08-20T02:29:09;26.63;;;18.38;;
24903;SDS011;12960;50.322;11.124;2022-08-20T02:30:14;26.45;;;17.95;;
24903;SDS011;12960;50.322;11.124;2022-08-20T02:31:20;24.70;;;16.60;;
24903;SDS011;12960;50.322;11.124;2022-08-20T02:32:23;27.75;;;18.23;;
24903;SDS011;12960;50.322;11.124;2022-08-20T02:33:24;23.90;;;15.60;;
24903;SDS011;12960;50.322;11.124;2022-08-20T02:34:25;24.90;;;16.73;;
24903;SDS011;12960;50.322;11.124;2022-08-20T02:35:27;25.38;;;16.67;;
24903;SDS011;12960;50.322;11.124;2022-08-20T02:36:28;24.35;;;17.85;;
24903;SDS011;12960;50.322;11.124;2022-08-20T02:37:29;27.45;;;17.90;;
24903;SDS011;12960;50.322;11.124;2022-08-20T02:38:31;25.98;;;16.13;;
24903;SDS011;12960;50.322;11.124;2022-08-20T02:39:34;20.92;;;15.82;;
24903;SDS011;12960;50.322;11.124;2022-08-20T02:40:35;28.30;;;17.60;;
24903;SDS011;12960;50.322;11.124;2022-08-20T02:41:37;27.23;;;18.10;;
24903;SDS011;12960;50.322;11.124;2022-08-20T02:42:42;22.20;;;15.95;;
24903;SDS011;12960;50.322;11.124;2022-08-20T02:43:43;21.45;;;16.77;;
24903;SDS011;12960;50.322;11.124;2022-08-20T02:44:44;21.83;;;16.33;;
24903;SDS011;12960;50.322;11.124;2022-08-20T02:45:45;21.60;;;15.75;;
24903;SDS011;12960;50.322;11.124;2022-08-20T02:46:47;21.48;;;15.23;;
24903;SDS011;12960;50.322;11.124;2022-08-20T02:47:50;23.63;;;16.25;;
24903;SDS011;12960;50.322;11.124;2022-08-20T02:48:53;23.48;;;16.50;;
24903;SDS011;12960;50.322;11.124;2022-08-20T02:49:55;23.65;;;17.40;;
24903;SDS011;12960;50.322;11.124;2022-08-20T02:50:57;19.33;;;15.95;;
24903;SDS011;12960;50.322;11.124;2022-08-20T02:52:01;22.50;;;16.77;;
24903;SDS011;12960;50.322;11.124;2022-08-20T02:53:02;21.33;;;15.82;;
24903;SDS011;12960;50.322;11.124;2022-08-20T02:54:03;23.42;;;15.85;;
24903;SDS011;12960;50.322;11.124;2022-08-20T02:55:07;19.85;;;15.18;;
24903;SDS011;12960;50.322;11.124;2022-08-20T02:56:09;21.88;;;16.10;;
24903;SDS011;12960;50.322;11.124;2022-08-20T02:57:12;22.48;;;15.10;;
24903;SDS011;12960;50.322;11.124;2022-08-20T02:58:14;22.25;;;15.00;;
24903;SDS011;12960;50.322;11.124;2022-08-20T02:59:15;20.45;;;15.30;;
24903;SDS011;12960;50.322;11.124;2022-08-20T03:00:18;21.77;;;15.77;;
24903;SDS011;12960;50.322;11.124;2022-08-20T03:01:21;24.52;;;16.30;;
24903;SDS011;12960;50.322;11.124;2022-08-20T03:02:22;21.75;;;16.27;;
24903;SDS011;12960;50.322;11.124;2022-08-20T03:03:23;23.48;;;15.10;;
24903;SDS011;12960;50.322;11.124;2022-08-20T03:04:28;18.13;;;14.60;;
24903;SDS011;12960;50.322;11.124;2022-08-20T03:05:29;20.20;;;15.25;;
24903;SDS011;12960;50.322;11.124;2022-08-20T03:06:31;22.90;;;15.55;;
24903;SDS011;12960;50.322;11.124;2022-08-20T03:07:38;19.40;;;14.68;;
24903;SDS011;12960;50.322;11.124;2022-08-20T03:08:41;21.55;;;14.73;;
24903;SDS011;12960;50.322;11.124;2022-08-20T03:09:43;19.40;;;15.10;;
24903;SDS011;12960;50.322;11.124;2022-08-20T03:10:45;21.67;;;15.30;;
24903;SDS011;12960;50.322;11.124;2022-08-20T03:11:50;21.05;;;15.07;;
24903;SDS011;12960;50.322;11.124;2022-08-20T03:12:51;20.25;;;14.45;;
24903;SDS011;12960;50.322;11.124;2022-08-20T03:13:52;18.17;;;14.27;;
24903;SDS011;12960;50.322;11.124;2022-08-20T03:14:53;20.10;;;13.30;;
24903;SDS011;12960;50.322;11.124;2022-08-20T03:15:57;20.60;;;13.50;;
24903;SDS011;12960;50.322;11.124;2022-08-20T03:17:00;19.02;;;14.23;;
24903;SDS011;12960;50.322;11.124;2022-08-20T03:18:01;16.17;;;13.15;;
24903;SDS011;12960;50.322;11.124;2022-08-20T03:19:02;17.55;;;13.88;;
24903;SDS011;12960;50.322;11.124;2022-08-20T03:20:07;20.70;;;14.40;;
24903;SDS011;12960;50.322;11.124;2022-08-20T03:21:10;18.10;;;13.77;;
24903;SDS011;12960;50.322;11.124;2022-08-20T03:22:12;21.23;;;14.77;;
24903;SDS011;12960;50.322;11.124;2022-08-20T03:23:13;18.38;;;14.40;;
24903;SDS011;12960;50.322;11.124;2022-08-20T03:24:15;15.82;;;13.30;;
24903;SDS011;12960;50.322;11.124;2022-08-20T03:25:17;21.92;;;14.98;;
24903;SDS011;12960;50.322;11.124;2022-08-20T03:26:30;20.92;;;15.43;;
24903;SDS011;12960;50.322;11.124;2022-08-20T03:27:31;20.02;;;15.32;;
24903;SDS011;12960;50.322;11.124;2022-08-20T03:28:32;17.77;;;14.90;;
24903;SDS011;12960;50.322;11.124;2022-08-20T03:29:33;20.48;;;14.55;;
24903;SDS011;12960;50.322;11.124;2022-08-20T03:30:34;17.50;;;13.95;;
24903;SDS011;12960;50.322;11.124;2022-08-20T03:31:35;18.27;;;15.05;;
24903;SDS011;12960;50.322;11.124;2022-08-20T03:32:37;23.17;;;15.35;;
24903;SDS011;12960;50.322;11.124;2022-08-20T03:33:38;18.95;;;15.15;;
24903;SDS011;12960;50.322;11.124;2022-08-20T03:34:39;28.00;;;16.45;;
24903;SDS011;12960;50.322;11.124;2022-08-20T03:35:40;22.67;;;15.75;;
24903;SDS011;12960;50.322;11.124;2022-08-20T03:36:41;23.58;;;14.98;;
24903;SDS011;12960;50.322;11.124;2022-08-20T03:37:43;19.30;;;14.70;;
24903;SDS011;12960;50.322;11.124;2022-08-20T03:38:44;18.60;;;14.65;;
24903;SDS011;12960;50.322;11.124;2022-08-20T03:39:45;20.50;;;14.88;;
24903;SDS011;12960;50.322;11.124;2022-08-20T03:40:46;21.02;;;14.20;;
24903;SDS011;12960;50.322;11.124;2022-08-20T03:41:48;22.40;;;15.70;;
24903;SDS011;12960;50.322;11.124;2022-08-20T03:42:52;23.70;;;15.45;;
24903;SDS011;12960;50.322;11.124;2022-08-20T03:43:56;19.60;;;14.98;;
24903;SDS011;12960;50.322;11.124;2022-08-20T03:45:00;18.52;;;14.75;;
24903;SDS011;12960;50.322;11.124;2022-08-20T03:46:04;22.27;;;14.98;;
24903;SDS011;12960;50.322;11.124;2022-08-20T03:47:05;19.25;;;14.88;;
24903;SDS011;12960;50.322;11.124;2022-08-20T03:48:14;21.10;;;16.38;;
24903;SDS011;12960;50.322;11.124;2022-08-20T03:49:16;21.85;;;15.25;;
24903;SDS011;12960;50.322;11.124;2022-08-20T03:50:19;20.05;;;15.25;;
24903;SDS011;12960;50.322;11.124;2022-08-20T03:51:22;23.95;;;16.05;;
24903;SDS011;12960;50.322;11.124;2022-08-20T03:52:24;22.30;;;15.68;;
24903;SDS011;12960;50.322;11.124;2022-08-20T03:53:28;19.67;;;15.30;;
24903;SDS011;12960;50.322;11.124;2022-08-20T03:54:31;18.17;;;14.80;;
24903;SDS011;12960;50.322;11.124;2022-08-20T03:55:34;21.73;;;15.60;;
24903;SDS011;12960;50.322;11.124;2022-08-20T03:56:36;20.50;;;15.55;;
24903;SDS011;12960;50.322;11.124;2022-08-20T03:57:42;20.00;;;15.52;;
24903;SDS011;12960;50.322;11.124;2022-08-20T03:58:48;21.48;;;15.38;;
24903;SDS011;12960;50.322;11.124;2022-08-20T03:59:49;21.08;;;14.50;;
24903;SDS011;12960;50.322;11.124;2022-08-20T04:00:50;22.05;;;16.00;;
24903;SDS011;12960;50.322;11.124;2022-08-20T04:01:51;24.77;;;16.13;;
24903;SDS011;12960;50.322;11.124;2022-08-20T04:02:54;21.67;;;15.15;;
24903;SDS011;12960;50.322;11.124;2022-08-20T04:03:56;21.25;;;16.52;;
24903;SDS011;12960;50.322;11.124;2022-08-20T04:04:58;28.27;;;20.50;;
24903;SDS011;12960;50.322;11.124;2022-08-20T04:05:59;41.50;;;30.38;;
24903;SDS011;12960;50.322;11.124;2022-08-20T04:07:07;29.95;;;21.00;;
24903;SDS011;12960;50.322;11.124;2022-08-20T04:08:25;23.13;;;15.63;;
24903;SDS011;12960;50.322;11.124;2022-08-20T04:09:31;28.20;;;20.52;;
24903;SDS011;12960;50.322;11.124;2022-08-20T04:10:33;20.75;;;15.05;;
24903;SDS011;12960;50.322;11.124;2022-08-20T04:11:34;22.73;;;16.30;;
24903;SDS011;12960;50.322;11.124;2022-08-20T04:12:37;19.63;;;14.65;;
24903;SDS011;12960;50.322;11.124;2022-08-20T04:13:40;20.30;;;15.27;;
24903;SDS011;12960;50.322;11.124;2022-08-20T04:14:41;21.48;;;14.88;;
24903;SDS011;12960;50.322;11.124;2022-08-20T04:15:42;21.95;;;15.82;;
24903;SDS011;12960;50.322;11.124;2022-08-20T04:16:44;20.33;;;16.02;;
24903;SDS011;12960;50.322;11.124;2022-08-20T04:17:46;21.45;;;15.18;;
24903;SDS011;12960;50.322;11.124;2022-08-20T04:18:49;22.52;;;15.77;;
24903;SDS011;12960;50.322;11.124;2022-08-20T04:19:53;19.85;;;15.27;;
24903;SDS011;12960;50.322;11.124;2022-08-20T04:20:54;23.05;;;16.33;;
24903;SDS011;12960;50.322;11.124;2022-08-20T04:21:55;21.98;;;14.77;;
24903;SDS011;12960;50.322;11.124;2022-08-20T04:22:56;21.75;;;15.25;;
24903;SDS011;12960;50.322;11.124;2022-08-20T04:23:57;22.27;;;16.25;;
24903;SDS011;12960;50.322;11.124;2022-08-20T04:24:58;22.92;;;15.52;;
24903;SDS011;12960;50.322;11.124;2022-08-20T04:25:59;19.42;;;15.70;;
24903;SDS011;12960;50.322;11.124;2022-08-20T04:27:00;19.23;;;15.20;;
24903;SDS011;12960;50.322;11.124;2022-08-20T04:28:03;24.98;;;15.90;;
24903;SDS011;12960;50.322;11.124;2022-08-20T04:29:05;22.33;;;15.88;;
24903;SDS011;12960;50.322;11.124;2022-08-20T04:30:07;23.13;;;17.13;;
24903;SDS011;12960;50.322;11.124;2022-08-20T04:31:10;18.88;;;14.45;;
24903;SDS011;12960;50.322;11.124;2022-08-20T04:32:13;67.72;;;47.03;;
24903;SDS011;12960;50.322;11.124;2022-08-20T04:33:20;85.95;;;56.78;;
24903;SDS011;12960;50.322;11.124;2022-08-20T04:34:23;30.67;;;20.23;;
24903;SDS011;12960;50.322;11.124;2022-08-20T04:35:25;34.88;;;23.48;;
24903;SDS011;12960;50.322;11.124;2022-08-20T04:36:27;27.88;;;19.52;;
24903;SDS011;12960;50.322;11.124;2022-08-20T04:37:28;34.30;;;21.23;;
24903;SDS011;12960;50.322;11.124;2022-08-20T04:38:30;50.40;;;31.75;;
24903;SDS011;12960;50.322;11.124;2022-08-20T04:39:32;39.42;;;26.65;;
24903;SDS011;12960;50.322;11.124;2022-08-20T04:40:33;22.15;;;15.90;;
24903;SDS011;12960;50.322;11.124;2022-08-20T04:41:53;30.35;;;19.58;;
24903;SDS011;12960;50.322;11.124;2022-08-20T04:42:55;25.13;;;16.83;;
24903;SDS011;12960;50.322;11.124;2022-08-20T04:43:56;20.67;;;16.25;;
24903;SDS011;12960;50.322;11.124;2022-08-20T04:45:00;24.70;;;16.45;;
24903;SDS011;12960;50.322;11.124;2022-08-20T04:46:03;27.13;;;18.15;;
24903;SDS011;12960;50.322;11.124;2022-08-20T04:47:08;22.25;;;15.00;;
24903;SDS011;12960;50.322;11.124;2022-08-20T04:48:09;31.70;;;18.98;;
24903;SDS011;12960;50.322;11.124;2022-08-20T04:49:16;23.60;;;16.10;;
24903;SDS011;12960;50.322;11.124;2022-08-20T04:50:17;21.15;;;16.23;;
24903;SDS011;12960;50.322;11.124;2022-08-20T04:51:20;24.25;;;17.25;;
24903;SDS011;12960;50.322;11.124;2022-08-20T04:52:21;23.33;;;16.95;;
24903;SDS011;12960;50.322;11.124;2022-08-20T04:53:23;34.33;;;25.08;;
24903;SDS011;12960;50.322;11.124;2022-08-20T04:54:27;43.40;;;28.73;;
24903;SDS011;12960;50.322;11.124;2022-08-20T04:55:28;30.27;;;21.77;;
24903;SDS011;12960;50.322;11.124;2022-08-20T04:56:31;38.30;;;23.75;;
24903;SDS011;12960;50.322;11.124;2022-08-20T04:57:38;27.83;;;22.15;;
24903;SDS011;12960;50.322;11.124;2022-08-20T04:58:39;67.80;;;45.47;;
24903;SDS011;12960;50.322;11.124;2022-08-20T04:59:41;27.00;;;19.20;;
24903;SDS011;12960;50.322;11.124;2022-08-20T05:00:44;61.83;;;40.83;;
24903;SDS011;12960;50.322;11.124;2022-08-20T05:01:49;107.07;;;67.72;;
24903;SDS011;12960;50.322;11.124;2022-08-20T05:02:50;32.53;;;22.27;;
24903;SDS011;12960;50.322;11.124;2022-08-20T05:03:51;57.10;;;36.75;;
24903;SDS011;12960;50.322;11.124;2022-08-20T05:04:54;33.20;;;21.15;;
24903;SDS011;12960;50.322;11.124;2022-08-20T05:05:55;58.95;;;38.28;;
24903;SDS011;12960;50.322;11.124;2022-08-20T05:06:57;33.13;;;21.50;;
24903;SDS011;12960;50.322;11.124;2022-08-20T05:07:58;28.48;;;21.65;;
24903;SDS011;12960;50.322;11.124;2022-08-20T05:08:59;22.20;;;16.73;;
24903;SDS011;12960;50.322;11.124;2022-08-20T05:10:04;20.42;;;16.15;;
24903;SDS011;12960;50.322;11.124;2022-08-20T05:11:09;27.23;;;19.50;;
24903;SDS011;12960;50.322;11.124;2022-08-20T05:12:11;24.20;;;15.57;;
24903;SDS011;12960;50.322;11.124;2022-08-20T05:13:15;20.08;;;15.48;;
24903;SDS011;12960;50.322;11.124;2022-08-20T05:14:17;26.98;;;17.40;;
24903;SDS011;12960;50.322;11.124;2022-08-20T05:15:21;22.42;;;16.27;;
24903;SDS011;12960;50.322;11.124;2022-08-20T05:16:23;19.40;;;14.35;;
24903;SDS011;12960;50.322;11.124;2022-08-20T05:17:25;19.35;;;15.20;;
24903;SDS011;12960;50.322;11.124;2022-08-20T05:18:32;23.60;;;14.88;;
24903;SDS011;12960;50.322;11.124;2022-08-20T05:19:37;22.30;;;15.52;;
24903;SDS011;12960;50.322;11.124;2022-08-20T05:20:44;19.63;;;15.95;;
24903;SDS011;12960;50.322;11.124;2022-08-20T05:21:45;22.38;;;16.45;;
24903;SDS011;12960;50.322;11.124;2022-08-20T05:22:46;20.38;;;15.25;;
24903;SDS011;12960;50.322;11.124;2022-08-20T05:23:47;20.95;;;15.77;;
24903;SDS011;12960;50.322;11.124;2022-08-20T05:24:48;24.88;;;16.83;;
24903;SDS011;12960;50.322;11.124;2022-08-20T05:25:50;23.38;;;17.48;;
24903;SDS011;12960;50.322;11.124;2022-08-20T05:26:52;39.67;;;25.38;;
24903;SDS011;12960;50.322;11.124;2022-08-20T05:27:56;34.67;;;24.95;;
24903;SDS011;12960;50.322;11.124;2022-08-20T05:29:00;52.30;;;34.08;;
24903;SDS011;12960;50.322;11.124;2022-08-20T05:30:06;61.92;;;40.03;;
24903;SDS011;12960;50.322;11.124;2022-08-20T05:31:14;94.70;;;58.55;;
24903;SDS011;12960;50.322;11.124;2022-08-20T05:32:15;42.47;;;28.17;;
24903;SDS011;12960;50.322;11.124;2022-08-20T05:33:16;25.85;;;18.20;;
24903;SDS011;12960;50.322;11.124;2022-08-20T05:34:20;27.83;;;20.50;;
24903;SDS011;12960;50.322;11.124;2022-08-20T05:35:21;27.27;;;20.27;;
24903;SDS011;12960;50.322;11.124;2022-08-20T05:36:22;56.42;;;38.10;;
24903;SDS011;12960;50.322;11.124;2022-08-20T05:37:25;118.82;;;74.55;;
24903;SDS011;12960;50.322;11.124;2022-08-20T05:38:29;72.88;;;47.63;;
24903;SDS011;12960;50.322;11.124;2022-08-20T05:39:33;90.93;;;61.30;;
24903;SDS011;12960;50.322;11.124;2022-08-20T05:40:34;120.35;;;81.63;;
24903;SDS011;12960;50.322;11.124;2022-08-20T05:41:36;89.53;;;60.45;;
24903;SDS011;12960;50.322;11.124;2022-08-20T05:42:37;58.78;;;40.63;;
24903;SDS011;12960;50.322;11.124;2022-08-20T05:43:38;136.90;;;89.57;;
24903;SDS011;12960;50.322;11.124;2022-08-20T05:44:39;168.38;;;108.60;;
24903;SDS011;12960;50.322;11.124;2022-08-20T05:45:43;78.03;;;51.83;;
24903;SDS011;12960;50.322;11.124;2022-08-20T05:46:46;81.53;;;53.35;;
24903;SDS011;12960;50.322;11.124;2022-08-20T05:47:47;36.35;;;24.55;;
24903;SDS011;12960;50.322;11.124;2022-08-20T05:48:48;23.27;;;17.73;;
24903;SDS011;12960;50.322;11.124;2022-08-20T05:49:52;49.22;;;34.78;;
24903;SDS011;12960;50.322;11.124;2022-08-20T05:50:53;33.65;;;24.58;;
24903;SDS011;12960;50.322;11.124;2022-08-20T05:51:55;19.50;;;14.98;;
24903;SDS011;12960;50.322;11.124;2022-08-20T05:52:57;45.47;;;30.85;;
24903;SDS011;12960;50.322;11.124;2022-08-20T05:53:58;25.33;;;18.23;;
24903;SDS011;12960;50.322;11.124;2022-08-20T05:54:59;36.60;;;25.80;;
24903;SDS011;12960;50.322;11.124;2022-08-20T05:56:00;31.05;;;23.40;;
24903;SDS011;12960;50.322;11.124;2022-08-20T05:57:01;22.17;;;17.08;;
24903;SDS011;12960;50.322;11.124;2022-08-20T05:58:03;20.92;;;16.08;;
24903;SDS011;12960;50.322;11.124;2022-08-20T05:59:06;22.63;;;15.52;;
24903;SDS011;12960;50.322;11.124;2022-08-20T06:00:09;19.23;;;15.30;;
24903;SDS011;12960;50.322;11.124;2022-08-20T06:01:19;18.65;;;15.18;;
24903;SDS011;12960;50.322;11.124;2022-08-20T06:02:20;32.55;;;21.55;;
24903;SDS011;12960;50.322;11.124;2022-08-20T06:03:40;20.35;;;14.50;;
24903;SDS011;12960;50.322;11.124;2022-08-20T06:04:59;19.77;;;14.38;;
24903;SDS011;12960;50.322;11.124;2022-08-20T06:06:03;21.27;;;14.95;;
24903;SDS011;12960;50.322;11.124;2022-08-20T06:07:05;19.70;;;15.88;;
24903;SDS011;12960;50.322;11.124;2022-08-20T06:08:07;22.27;;;15.75;;
24903;SDS011;12960;50.322;11.124;2022-08-20T06:09:09;22.52;;;15.30;;
24903;SDS011;12960;50.322;11.124;2022-08-20T06:10:10;19.75;;;15.95;;